createdAt,value
2023-02-03T00:01:20.662Z,10.36
2023-02-03T00:07:15.047Z,10.19
2023-02-03T00:13:10.671Z,10.35
2023-02-03T00:19:32.638Z,10.35
2023-02-03T00:33:33.746Z,10.38
2023-02-03T00:39:15.926Z,10.28
2023-02-03T00:39:24.180Z,10.52
2023-02-03T00:45:11.267Z,10.37
2023-02-03T00:51:00.155Z,10.52
2023-02-03T00:56:50.499Z,10.69
2023-02-03T01:03:51.470Z,10.82
2023-02-03T01:09:41.724Z,10.85
2023-02-03T01:15:30.720Z,10.93
2023-02-03T01:21:50.359Z,11.06
2023-02-03T01:27:40.639Z,11.03
2023-02-03T01:34:01.178Z,11.11
2023-02-03T02:02:03.761Z,11.08
2023-02-03T02:08:10.873Z,11.02
2023-02-03T02:08:15.502Z,10.95
2023-02-03T02:14:05.482Z,10.76
2023-02-03T02:21:31.186Z,11.05
2023-02-03T02:36:11.393Z,11.10
2023-02-03T02:42:50.724Z,11.02
2023-02-03T02:49:41.454Z,10.67
2023-02-03T02:56:32.177Z,11.02
2023-02-03T03:03:21.374Z,11.05
2023-02-03T03:09:51.397Z,10.99
2023-02-03T03:16:42.700Z,11.09
2023-02-03T03:23:52.778Z,11.17
2023-02-03T03:38:34.276Z,11.08
2023-02-03T04:00:03.350Z,10.75
2023-02-03T04:06:31.589Z,10.94
2023-02-03T04:12:51.690Z,10.90
2023-02-03T04:18:38.598Z,10.99
2023-02-03T04:24:31.691Z,10.79
2023-02-03T04:30:51.592Z,10.68
2023-02-03T04:43:45.065Z,10.81
2023-02-03T04:49:32.431Z,10.62
2023-02-03T05:04:21.380Z,10.63
2023-02-03T05:10:11.934Z,10.62
2023-02-03T05:15:58.571Z,10.68
2023-02-03T05:29:42.532Z,10.66
2023-02-03T05:35:43.160Z,10.72
2023-02-03T05:41:56.570Z,10.49
2023-02-03T05:48:21.189Z,10.70
2023-02-03T05:54:26.605Z,10.72
2023-02-03T06:00:32.321Z,10.54
2023-02-03T06:07:31.154Z,10.55
2023-02-03T06:13:52.741Z,10.69
2023-02-03T06:20:21.835Z,10.73
2023-02-03T06:26:11.976Z,10.64
2023-02-03T06:33:41.421Z,10.66
2023-02-03T06:47:52.023Z,10.36
2023-02-03T06:53:38.797Z,10.53
2023-02-03T06:59:29.344Z,10.49
2023-02-03T07:05:35.608Z,10.21
2023-02-03T07:12:02.878Z,10.41
2023-02-03T07:18:03.465Z,10.57
2023-02-03T07:23:51.985Z,10.69
2023-02-03T07:29:50.314Z,10.44
2023-02-03T07:36:55.810Z,10.65
2023-02-03T07:43:01.965Z,10.54
2023-02-03T07:49:06.891Z,10.64
2023-02-03T07:55:12.945Z,10.72
2023-02-03T08:01:37.224Z,10.74
2023-02-03T08:07:26.065Z,10.68
2023-02-03T08:13:13.313Z,10.87
2023-02-03T08:32:09.673Z,10.78
2023-02-03T08:37:56.758Z,10.74
2023-02-03T08:43:44.660Z,10.99
2023-02-03T08:49:35.964Z,11.06
2023-02-03T08:55:22.743Z,10.93
2023-02-03T09:01:12.229Z,11.13
2023-02-03T09:07:13.986Z,11.43
2023-02-03T09:13:01.139Z,11.87
2023-02-03T09:18:50.952Z,11.95
2023-02-03T09:24:41.781Z,11.94
2023-02-03T09:30:29.131Z,12.19
2023-02-03T09:36:18.185Z,12.44
2023-02-03T09:42:32.348Z,12.63
2023-02-03T09:48:24.312Z,12.69
2023-02-03T09:54:29.444Z,12.63
2023-02-03T10:00:54.350Z,13.33
2023-02-03T10:06:47.508Z,13.16
2023-02-03T10:12:59.219Z,12.61
2023-02-03T10:19:18.531Z,12.96
2023-02-03T10:25:18.256Z,13.16
2023-02-03T10:31:23.798Z,13.68
2023-02-03T10:37:27.063Z,13.65
2023-02-03T10:49:50.981Z,14.01
2023-02-03T10:55:37.793Z,14.15
2023-02-03T11:02:11.552Z,14.23
2023-02-03T11:07:59.079Z,14.28
2023-02-03T11:13:46.795Z,14.31
2023-02-03T11:20:05.022Z,14.39
2023-02-03T11:25:52.531Z,14.50
2023-02-03T11:31:39.450Z,14.36
2023-02-03T11:37:29.589Z,14.13
2023-02-03T11:43:18.080Z,14.23
2023-02-03T11:49:19.160Z,14.57
2023-02-03T11:55:22.583Z,14.50
2023-02-03T12:01:12.369Z,14.47
2023-02-03T12:07:41.292Z,14.43
2023-02-03T12:13:48.906Z,14.26
2023-02-03T12:19:50.864Z,14.47
2023-02-03T12:26:05.560Z,14.27
2023-02-03T12:32:11.362Z,14.44
2023-02-03T12:38:06.995Z,14.70
2023-02-03T12:43:59.781Z,14.45
2023-02-03T12:50:07.866Z,14.37
2023-02-03T12:56:04.345Z,14.30
2023-02-03T13:02:01.719Z,14.26
2023-02-03T13:08:00.136Z,14.34
2023-02-03T13:13:58.801Z,14.55
2023-02-03T13:19:50.998Z,14.27
2023-02-03T13:25:37.769Z,14.21
2023-02-03T13:31:30.710Z,14.38
2023-02-03T13:37:29.619Z,14.31
2023-02-03T13:43:37.223Z,14.45
2023-02-03T13:49:29.553Z,14.69
2023-02-03T13:55:29.566Z,14.45
2023-02-03T14:01:36.015Z,14.26
2023-02-03T14:07:39.147Z,14.30
2023-02-03T14:13:25.958Z,14.58
2023-02-03T14:19:21.996Z,14.40
2023-02-03T14:25:09.067Z,14.37
2023-02-03T14:31:05.517Z,14.38
2023-02-03T14:36:55.444Z,14.12
2023-02-03T14:43:08.634Z,13.89
2023-02-03T14:49:15.472Z,13.99
2023-02-03T14:55:25.304Z,13.94
2023-02-03T15:01:38.510Z,14.11
2023-02-03T15:07:35.923Z,14.16
2023-02-03T15:13:31.101Z,13.98
2023-02-03T15:19:20.853Z,13.97
2023-02-03T15:25:18.158Z,13.65
2023-02-03T15:31:28.074Z,13.56
2023-02-03T15:37:45.196Z,13.64
2023-02-03T15:44:07.449Z,13.59
2023-02-03T15:50:56.821Z,13.51
2023-02-03T15:57:01.797Z,13.60
2023-02-03T16:03:28.397Z,13.72
2023-02-03T16:09:41.716Z,13.48
2023-02-03T16:15:28.849Z,13.44
2023-02-03T16:21:33.316Z,13.25
2023-02-03T16:27:26.925Z,13.34
2023-02-03T16:33:36.097Z,13.45
2023-02-03T16:39:45.380Z,13.24
2023-02-03T16:45:51.345Z,13.37
2023-02-03T16:51:41.172Z,13.36
2023-02-03T16:57:28.354Z,13.37
2023-02-03T17:03:18.579Z,13.23
2023-02-03T17:09:05.567Z,13.13
2023-02-03T17:14:58.563Z,13.16
2023-02-03T17:20:47.188Z,12.86
2023-02-03T17:26:35.229Z,12.88
2023-02-03T17:32:21.883Z,12.88
2023-02-03T17:38:11.433Z,13.05
2023-02-03T17:56:15.316Z,12.57
2023-02-03T18:02:02.402Z,12.68
2023-02-03T18:07:49.933Z,12.64
2023-02-03T18:13:52.530Z,12.74
2023-02-03T18:20:10.431Z,12.96
2023-02-03T18:26:04.223Z,12.68
2023-02-03T18:31:51.305Z,12.66
2023-02-03T18:37:38.109Z,12.88
2023-02-03T18:43:24.937Z,12.64
2023-02-03T18:49:12.053Z,12.78
2023-02-03T18:54:58.703Z,12.83
2023-02-03T19:00:46.481Z,12.70
2023-02-03T19:06:36.196Z,12.62
2023-02-03T19:12:26.000Z,12.82
2023-02-03T19:18:17.408Z,12.79
2023-02-03T19:24:06.435Z,12.79
2023-02-03T19:29:53.202Z,12.79
2023-02-03T19:35:41.650Z,12.76
2023-02-03T19:41:36.341Z,12.60
2023-02-03T19:47:23.056Z,12.61
2023-02-03T19:53:10.509Z,12.29
2023-02-03T19:59:09.074Z,12.24
2023-02-03T20:05:08.336Z,11.99
2023-02-03T20:10:58.404Z,12.10
2023-02-03T20:16:45.431Z,11.91
2023-02-03T20:22:32.243Z,11.82
2023-02-03T20:28:25.320Z,11.66
2023-02-03T20:34:12.106Z,11.42
2023-02-03T20:40:19.780Z,11.12
2023-02-03T20:46:12.481Z,11.30
2023-02-03T20:52:16.897Z,11.11
2023-02-03T20:58:19.959Z,11.10
2023-02-03T21:04:36.046Z,11.18
2023-02-03T21:10:25.073Z,10.89
2023-02-03T21:16:20.659Z,10.98
2023-02-03T21:22:17.476Z,10.79
2023-02-03T21:28:05.852Z,10.65
2023-02-03T21:40:34.233Z,10.47
2023-02-03T21:46:26.723Z,10.57
2023-02-03T21:52:14.509Z,10.68
2023-02-03T21:58:18.640Z,10.80
2023-02-03T22:04:06.610Z,10.57
2023-02-03T22:09:53.411Z,10.73
2023-02-03T22:15:41.191Z,10.82
2023-02-03T22:21:32.112Z,10.83
2023-02-03T22:27:19.081Z,10.63
2023-02-03T22:33:05.983Z,10.81
2023-02-03T22:38:53.927Z,10.83
2023-02-03T22:44:40.890Z,10.76
2023-02-03T22:50:35.478Z,10.82
2023-02-03T22:56:25.489Z,11.03
2023-02-03T23:02:12.403Z,11.20
2023-02-03T23:07:59.871Z,11.10
2023-02-03T23:13:53.450Z,11.16
2023-02-03T23:19:40.839Z,11.05
2023-02-03T23:25:27.614Z,10.93
2023-02-03T23:31:15.459Z,10.75
2023-02-03T23:37:05.366Z,10.79
2023-02-03T23:42:52.538Z,10.70
2023-02-03T23:55:08.153Z,10.61
